createdAt,value
2023-05-14T00:01:02.294Z,12.23
2023-05-14T00:03:28.984Z,12.48
2023-05-14T00:05:55.525Z,12.40
2023-05-14T00:08:22.053Z,12.50
2023-05-14T00:10:48.609Z,12.13
2023-05-14T00:13:15.534Z,12.02
2023-05-14T00:15:42.118Z,12.27
2023-05-14T00:18:12.037Z,13.57
2023-05-14T00:20:38.626Z,12.98
2023-05-14T00:23:05.186Z,13.25
2023-05-14T00:25:31.740Z,13.30
2023-05-14T00:27:58.231Z,13.23
2023-05-14T00:30:24.996Z,13.55
2023-05-14T00:32:51.726Z,13.85
2023-05-14T00:35:18.362Z,14.30
2023-05-14T00:37:44.833Z,13.90
2023-05-14T00:40:12.940Z,14.48
2023-05-14T00:42:40.584Z,14.80
2023-05-14T00:45:07.670Z,14.88
2023-05-14T00:47:34.869Z,15.07
2023-05-14T00:50:03.530Z,14.38
2023-05-14T00:52:30.105Z,14.70
2023-05-14T00:54:57.071Z,15.25
2023-05-14T00:57:23.659Z,15.15
2023-05-14T00:59:50.737Z,15.35
2023-05-14T01:02:17.318Z,15.77
2023-05-14T01:04:43.928Z,15.57
2023-05-14T01:07:34.485Z,16.08
2023-05-14T01:10:06.587Z,16.20
2023-05-14T01:12:52.890Z,16.70
2023-05-14T01:15:28.650Z,16.27
2023-05-14T01:18:01.708Z,16.85
2023-05-14T01:20:28.291Z,16.67
2023-05-14T01:22:54.796Z,16.38
2023-05-14T01:25:21.315Z,16.67
2023-05-14T01:28:10.985Z,16.90
2023-05-14T01:30:58.351Z,16.92
2023-05-14T01:33:27.578Z,17.38
2023-05-14T01:35:55.355Z,17.70
2023-05-14T01:38:23.449Z,16.45
2023-05-14T01:40:50.825Z,16.88
2023-05-14T01:43:17.747Z,17.60
2023-05-14T01:45:44.527Z,17.77
2023-05-14T01:48:11.273Z,17.13
2023-05-14T01:50:37.940Z,17.35
2023-05-14T01:53:04.614Z,18.20
2023-05-14T01:55:31.272Z,17.70
2023-05-14T01:57:57.822Z,17.92
2023-05-14T02:00:27.679Z,17.92
2023-05-14T02:02:54.423Z,17.17
2023-05-14T02:05:23.038Z,17.40
2023-05-14T02:07:49.525Z,18.65
2023-05-14T02:10:16.143Z,17.95
2023-05-14T02:12:42.703Z,17.25
2023-05-14T02:15:10.983Z,19.35
2023-05-14T02:17:38.157Z,17.75
2023-05-14T02:20:05.469Z,18.15
2023-05-14T02:22:32.158Z,17.98
2023-05-14T02:24:58.845Z,18.52
2023-05-14T02:27:25.385Z,18.73
2023-05-14T02:29:52.881Z,19.00
2023-05-14T02:32:19.464Z,19.42
2023-05-14T02:34:45.969Z,19.60
2023-05-14T02:37:12.678Z,19.20
2023-05-14T02:39:39.158Z,19.83
2023-05-14T02:42:06.990Z,19.90
2023-05-14T02:44:33.606Z,19.80
2023-05-14T02:47:00.211Z,19.80
2023-05-14T02:49:26.744Z,19.65
2023-05-14T02:51:54.386Z,20.15
2023-05-14T02:54:20.974Z,20.02
2023-05-14T02:56:47.590Z,19.38
2023-05-14T02:59:14.439Z,20.88
2023-05-14T03:01:41.604Z,21.40
2023-05-14T03:04:08.718Z,20.25
2023-05-14T03:06:35.355Z,20.63
2023-05-14T03:09:01.865Z,20.65
2023-05-14T03:11:28.480Z,21.15
2023-05-14T03:13:55.093Z,21.15
2023-05-14T03:16:21.635Z,20.77
2023-05-14T03:18:48.250Z,20.58
2023-05-14T03:21:14.827Z,21.08
2023-05-14T03:23:41.499Z,20.30
2023-05-14T03:26:08.382Z,20.73
2023-05-14T03:28:34.875Z,21.67
2023-05-14T03:31:01.593Z,21.55
2023-05-14T03:33:28.318Z,22.15
2023-05-14T03:35:54.798Z,21.17
2023-05-14T03:38:21.403Z,21.13
2023-05-14T03:40:47.895Z,20.98
2023-05-14T03:43:14.594Z,20.45
2023-05-14T03:45:41.358Z,22.33
2023-05-14T03:48:08.202Z,21.95
2023-05-14T03:50:35.098Z,21.52
2023-05-14T03:53:01.710Z,21.25
2023-05-14T03:55:29.997Z,21.52
2023-05-14T03:57:56.570Z,24.08
2023-05-14T04:00:23.462Z,22.15
2023-05-14T04:02:52.215Z,22.95
2023-05-14T04:05:18.792Z,23.23
2023-05-14T04:07:46.159Z,22.92
2023-05-14T04:10:13.808Z,23.02
2023-05-14T04:12:40.287Z,22.20
2023-05-14T04:15:08.373Z,23.02
2023-05-14T04:17:35.371Z,22.60
2023-05-14T04:20:01.895Z,22.60
2023-05-14T04:22:28.448Z,22.20
2023-05-14T04:24:54.940Z,22.48
2023-05-14T04:27:21.648Z,22.02
2023-05-14T04:29:49.271Z,20.98
2023-05-14T04:32:15.765Z,21.35
2023-05-14T04:34:42.424Z,21.85
2023-05-14T04:37:08.921Z,21.20
2023-05-14T04:39:35.486Z,20.95
2023-05-14T04:42:02.014Z,21.48
2023-05-14T04:44:28.625Z,21.33
2023-05-14T04:46:55.648Z,20.83
2023-05-14T04:49:22.320Z,19.90
2023-05-14T04:51:49.351Z,20.45
2023-05-14T04:54:15.890Z,20.45
2023-05-14T04:56:42.438Z,19.73
2023-05-14T04:59:09.015Z,19.58
2023-05-14T05:01:35.637Z,19.65
2023-05-14T05:04:02.277Z,19.50
2023-05-14T05:06:28.829Z,19.90
2023-05-14T05:08:55.724Z,19.63
2023-05-14T05:11:22.269Z,20.50
2023-05-14T05:13:48.764Z,19.08
2023-05-14T05:16:15.626Z,19.67
2023-05-14T05:18:42.279Z,19.58
2023-05-14T05:21:08.766Z,20.40
2023-05-14T05:23:35.348Z,18.90
2023-05-14T05:26:01.908Z,19.73
2023-05-14T05:28:28.446Z,19.27
2023-05-14T05:30:55.178Z,19.88
2023-05-14T05:33:21.821Z,19.80
2023-05-14T05:35:48.776Z,19.70
2023-05-14T05:38:15.645Z,19.42
2023-05-14T05:40:42.129Z,19.52
2023-05-14T05:43:08.625Z,19.20
2023-05-14T05:45:35.068Z,19.73
2023-05-14T05:48:01.643Z,19.40
2023-05-14T05:50:28.174Z,19.75
2023-05-14T05:52:54.651Z,19.92
2023-05-14T05:55:21.284Z,20.13
2023-05-14T05:57:47.872Z,20.27
2023-05-14T06:00:15.094Z,18.90
2023-05-14T06:02:41.818Z,19.40
2023-05-14T06:05:10.195Z,19.60
2023-05-14T06:07:36.782Z,19.38
2023-05-14T06:10:03.524Z,20.77
2023-05-14T06:12:30.063Z,18.88
2023-05-14T06:14:57.831Z,20.27
2023-05-14T06:17:25.137Z,19.45
2023-05-14T06:19:52.237Z,20.13
2023-05-14T06:22:19.195Z,20.52
2023-05-14T06:24:45.843Z,19.95
2023-05-14T06:27:12.342Z,19.60
2023-05-14T06:29:38.991Z,20.13
2023-05-14T06:32:05.941Z,20.15
2023-05-14T06:34:32.526Z,20.38
2023-05-14T06:36:59.135Z,19.67
2023-05-14T06:39:25.715Z,18.65
2023-05-14T06:41:52.294Z,19.70
2023-05-14T06:44:19.552Z,19.73
2023-05-14T06:46:46.097Z,19.63
2023-05-14T06:49:12.656Z,19.05
2023-05-14T06:51:40.634Z,19.30
2023-05-14T06:54:07.155Z,18.65
2023-05-14T06:56:33.641Z,19.60
2023-05-14T06:59:00.228Z,19.05
2023-05-14T07:01:26.819Z,18.60
2023-05-14T07:03:53.458Z,19.88
2023-05-14T07:06:20.339Z,19.50
2023-05-14T07:08:46.962Z,20.13
2023-05-14T07:11:13.578Z,19.60
2023-05-14T07:13:40.712Z,19.70
2023-05-14T07:16:10.135Z,19.80
2023-05-14T07:18:36.829Z,20.10
2023-05-14T07:21:06.407Z,18.83
2023-05-14T07:23:36.224Z,19.17
2023-05-14T07:26:03.329Z,19.35
2023-05-14T07:28:29.811Z,18.48
2023-05-14T07:30:56.381Z,19.85
2023-05-14T07:33:24.605Z,19.58
2023-05-14T07:35:51.447Z,18.55
2023-05-14T07:38:19.068Z,18.90
2023-05-14T07:40:45.916Z,18.67
2023-05-14T07:43:12.771Z,18.80
2023-05-14T07:45:39.418Z,19.13
2023-05-14T07:48:06.449Z,18.67
2023-05-14T07:50:33.169Z,18.83
2023-05-14T07:52:59.720Z,18.33
2023-05-14T07:55:26.231Z,18.40
2023-05-14T07:57:52.768Z,17.63
2023-05-14T08:00:19.401Z,18.25
2023-05-14T08:02:46.198Z,17.65
2023-05-14T08:05:12.877Z,18.05
2023-05-14T08:07:39.412Z,18.17
2023-05-14T08:10:07.709Z,17.85
2023-05-14T08:12:34.305Z,17.67
2023-05-14T08:15:00.807Z,17.58
2023-05-14T08:17:27.369Z,18.05
2023-05-14T08:19:54.163Z,17.90
2023-05-14T08:22:21.716Z,17.05
2023-05-14T08:24:48.786Z,16.65
2023-05-14T08:27:16.623Z,16.95
2023-05-14T08:29:43.201Z,16.45
2023-05-14T08:32:22.211Z,17.45
2023-05-14T08:34:49.706Z,16.20
2023-05-14T08:37:16.239Z,16.35
2023-05-14T08:39:42.771Z,15.98
2023-05-14T08:42:13.051Z,16.48
2023-05-14T08:44:52.484Z,16.95
2023-05-14T08:47:21.946Z,16.00
2023-05-14T08:50:02.476Z,15.27
2023-05-14T08:52:29.108Z,14.38
2023-05-14T08:54:57.258Z,15.88
2023-05-14T08:57:26.478Z,15.73
2023-05-14T08:59:53.779Z,15.55
2023-05-14T09:02:27.548Z,15.88
2023-05-14T09:05:01.385Z,15.73
2023-05-14T09:07:28.079Z,14.77
2023-05-14T09:09:55.401Z,14.82
2023-05-14T09:12:22.446Z,15.10
2023-05-14T09:14:50.029Z,15.27
2023-05-14T09:17:17.485Z,14.75
2023-05-14T09:19:47.242Z,14.35
2023-05-14T09:22:15.968Z,14.27
2023-05-14T09:24:42.932Z,13.98
2023-05-14T09:27:15.221Z,14.52
2023-05-14T09:29:41.698Z,14.18
2023-05-14T09:32:10.202Z,13.98
2023-05-14T09:34:39.504Z,14.05
2023-05-14T09:37:08.580Z,13.88
2023-05-14T09:39:37.229Z,13.65
2023-05-14T09:42:04.720Z,13.80
2023-05-14T09:44:31.902Z,14.05
2023-05-14T09:46:58.562Z,14.10
2023-05-14T09:49:25.175Z,14.02
2023-05-14T09:51:51.656Z,13.85
2023-05-14T09:54:18.326Z,13.00
2023-05-14T09:56:44.950Z,12.40
2023-05-14T09:59:11.608Z,12.93
2023-05-14T10:01:38.691Z,12.23
2023-05-14T10:04:09.280Z,12.60
2023-05-14T10:06:39.829Z,12.40
2023-05-14T10:09:12.940Z,11.32
2023-05-14T10:11:44.135Z,11.43
2023-05-14T10:14:24.891Z,11.98
2023-05-14T10:16:53.105Z,12.05
2023-05-14T10:19:23.754Z,12.20
2023-05-14T10:21:57.266Z,11.90
2023-05-14T10:24:25.604Z,11.90
2023-05-14T10:26:52.785Z,11.77
2023-05-14T10:29:19.311Z,11.55
2023-05-14T10:31:47.407Z,11.18
2023-05-14T10:34:40.625Z,12.02
2023-05-14T10:37:18.942Z,10.75
2023-05-14T10:39:45.461Z,11.07
2023-05-14T10:42:16.441Z,11.27
2023-05-14T10:44:53.406Z,11.13
2023-05-14T10:47:20.449Z,11.02
2023-05-14T10:49:50.604Z,10.82
2023-05-14T10:52:21.002Z,10.68
2023-05-14T10:54:51.775Z,10.45
2023-05-14T10:57:19.445Z,10.70
2023-05-14T10:59:47.878Z,10.45
2023-05-14T11:02:31.715Z,9.75
2023-05-14T11:05:08.133Z,9.77
2023-05-14T11:07:45.927Z,9.30
2023-05-14T11:10:14.517Z,9.90
2023-05-14T11:12:43.860Z,9.20
2023-05-14T11:15:16.159Z,9.57
2023-05-14T11:17:43.873Z,9.85
2023-05-14T11:20:11.808Z,8.27
2023-05-14T11:22:39.550Z,9.35
2023-05-14T11:25:07.221Z,8.93
2023-05-14T11:27:35.870Z,8.80
2023-05-14T11:30:03.845Z,8.88
2023-05-14T11:32:32.666Z,9.73
2023-05-14T11:34:59.180Z,9.40
2023-05-14T11:37:25.752Z,9.45
2023-05-14T11:39:56.462Z,9.40
2023-05-14T11:42:23.697Z,9.18
2023-05-14T11:44:51.830Z,9.00
2023-05-14T11:47:20.648Z,9.60
2023-05-14T11:49:48.495Z,9.32
2023-05-14T11:52:16.484Z,8.88
2023-05-14T11:54:44.097Z,8.63
2023-05-14T11:57:12.853Z,8.65
2023-05-14T11:59:39.994Z,8.98
2023-05-14T12:02:11.680Z,8.82
2023-05-14T12:04:38.689Z,9.55
2023-05-14T12:07:13.493Z,8.70
2023-05-14T12:09:49.690Z,8.80
2023-05-14T12:12:19.257Z,9.15
2023-05-14T12:14:45.790Z,9.50
2023-05-14T12:17:19.671Z,9.27
2023-05-14T12:19:48.325Z,8.73
2023-05-14T12:22:17.527Z,8.57
2023-05-14T12:24:52.323Z,8.43
2023-05-14T12:27:22.444Z,8.00
2023-05-14T12:29:48.929Z,8.05
2023-05-14T12:32:15.576Z,8.27
2023-05-14T12:34:42.100Z,8.40
2023-05-14T12:37:08.640Z,8.50
2023-05-14T12:39:35.606Z,8.60
2023-05-14T12:42:02.264Z,7.90
2023-05-14T12:44:29.094Z,7.43
2023-05-14T12:46:55.815Z,7.65
2023-05-14T12:49:22.433Z,7.40
2023-05-14T12:51:51.178Z,7.68
2023-05-14T12:54:19.302Z,7.45
2023-05-14T12:56:45.928Z,7.25
2023-05-14T12:59:12.447Z,7.45
2023-05-14T13:01:38.970Z,7.50
2023-05-14T13:04:05.678Z,7.25
2023-05-14T13:06:32.570Z,7.15
2023-05-14T13:09:01.660Z,7.55
2023-05-14T13:11:30.290Z,8.13
2023-05-14T13:13:56.908Z,7.78
2023-05-14T13:16:23.538Z,7.78
2023-05-14T13:18:50.165Z,7.55
2023-05-14T13:21:16.665Z,7.43
2023-05-14T13:23:43.176Z,7.53
2023-05-14T13:26:09.855Z,8.00
2023-05-14T13:28:36.371Z,7.38
2023-05-14T13:31:06.281Z,7.97
2023-05-14T13:33:34.756Z,7.57
2023-05-14T13:36:01.574Z,7.72
2023-05-14T13:38:28.162Z,7.72
2023-05-14T13:40:57.188Z,7.70
2023-05-14T13:43:23.868Z,8.20
2023-05-14T13:45:51.082Z,8.32
2023-05-14T13:48:17.748Z,8.18
2023-05-14T13:50:44.275Z,8.45
2023-05-14T13:53:10.850Z,8.55
2023-05-14T13:55:37.405Z,8.23
2023-05-14T13:58:04.766Z,8.60
2023-05-14T14:00:31.271Z,8.32
2023-05-14T14:02:57.987Z,8.15
2023-05-14T14:05:28.262Z,8.40
2023-05-14T14:08:00.865Z,7.88
2023-05-14T14:10:34.685Z,7.60
2023-05-14T14:13:01.165Z,7.60
2023-05-14T14:15:27.656Z,7.93
2023-05-14T14:17:54.352Z,7.82
2023-05-14T14:20:20.843Z,7.78
2023-05-14T14:22:47.406Z,7.63
2023-05-14T14:25:13.937Z,7.45
2023-05-14T14:27:40.883Z,8.00
2023-05-14T14:30:15.866Z,7.55
2023-05-14T14:32:44.461Z,7.53
2023-05-14T14:35:12.376Z,8.27
2023-05-14T14:37:39.030Z,7.80
2023-05-14T14:40:10.256Z,7.47
2023-05-14T14:42:37.757Z,6.93
2023-05-14T14:45:05.417Z,7.80
2023-05-14T14:47:32.083Z,7.43
2023-05-14T14:49:58.981Z,7.70
2023-05-14T14:52:26.253Z,7.70
2023-05-14T14:54:53.942Z,8.18
2023-05-14T14:57:21.498Z,8.18
2023-05-14T14:59:48.958Z,8.18
2023-05-14T15:02:15.658Z,7.68
2023-05-14T15:04:42.186Z,8.30
2023-05-14T15:07:08.689Z,8.50
2023-05-14T15:09:35.501Z,7.85
2023-05-14T15:12:02.089Z,7.85
2023-05-14T15:14:28.651Z,8.27
2023-05-14T15:16:55.429Z,7.80
2023-05-14T15:19:22.038Z,7.65
2023-05-14T15:21:48.604Z,7.43
2023-05-14T15:24:15.131Z,7.35
2023-05-14T15:26:41.949Z,7.20
2023-05-14T15:29:08.524Z,7.22
2023-05-14T15:31:35.052Z,7.05
2023-05-14T15:34:01.598Z,7.13
2023-05-14T15:36:28.634Z,7.20
2023-05-14T15:38:55.400Z,6.90
2023-05-14T15:41:22.716Z,7.00
2023-05-14T15:43:49.233Z,6.57
2023-05-14T15:46:15.776Z,6.65
2023-05-14T15:48:42.310Z,7.20
2023-05-14T15:51:08.811Z,7.03
2023-05-14T15:53:35.410Z,7.15
2023-05-14T15:56:02.760Z,7.20
2023-05-14T15:58:29.263Z,6.70
2023-05-14T16:00:56.066Z,6.70
2023-05-14T16:03:22.670Z,6.70
2023-05-14T16:05:49.298Z,7.40
2023-05-14T16:08:15.801Z,6.88
2023-05-14T16:10:42.338Z,7.03
2023-05-14T16:13:08.811Z,6.82
2023-05-14T16:15:35.552Z,7.05
2023-05-14T16:18:02.204Z,7.25
2023-05-14T16:20:28.779Z,7.32
2023-05-14T16:22:55.376Z,7.65
2023-05-14T16:25:21.854Z,7.20
2023-05-14T16:27:48.418Z,7.68
2023-05-14T16:30:15.045Z,7.20
2023-05-14T16:32:42.163Z,7.60
2023-05-14T16:35:09.894Z,6.70
2023-05-14T16:37:36.413Z,6.80
2023-05-14T16:40:03.169Z,7.30
2023-05-14T16:42:29.640Z,7.68
2023-05-14T16:44:56.121Z,7.70
2023-05-14T16:47:22.676Z,7.90
2023-05-14T16:49:49.190Z,8.57
2023-05-14T16:52:15.676Z,8.68
2023-05-14T16:54:42.141Z,8.32
2023-05-14T16:57:08.624Z,8.73
2023-05-14T16:59:35.328Z,9.30
2023-05-14T17:02:01.874Z,8.73
2023-05-14T17:04:28.481Z,9.77
2023-05-14T17:06:57.257Z,10.13
2023-05-14T17:09:23.833Z,10.13
2023-05-14T17:11:50.772Z,11.48
2023-05-14T17:14:17.325Z,11.90
2023-05-14T17:16:43.965Z,13.30
2023-05-14T17:19:10.995Z,12.07
2023-05-14T17:21:37.680Z,11.68
2023-05-14T17:24:04.261Z,11.68
2023-05-14T17:26:30.786Z,11.55
2023-05-14T17:28:57.281Z,12.10
2023-05-14T17:31:23.947Z,12.18
2023-05-14T17:33:50.613Z,12.73
2023-05-14T17:36:17.176Z,12.77
2023-05-14T17:38:43.695Z,12.82
2023-05-14T17:41:10.180Z,13.82
2023-05-14T17:43:36.689Z,14.40
2023-05-14T17:46:03.591Z,14.70
2023-05-14T17:48:30.194Z,14.27
2023-05-14T17:50:56.742Z,15.07
2023-05-14T17:53:23.309Z,14.65
2023-05-14T17:55:50.115Z,14.32
2023-05-14T17:58:16.710Z,18.17
2023-05-14T18:00:44.020Z,14.32
2023-05-14T18:03:11.217Z,13.52
2023-05-14T18:05:37.928Z,14.80
2023-05-14T18:08:04.589Z,14.10
2023-05-14T18:10:31.176Z,14.80
2023-05-14T18:12:57.725Z,13.43
2023-05-14T18:15:25.683Z,14.98
2023-05-14T18:17:52.879Z,13.70
2023-05-14T18:20:19.894Z,14.48
2023-05-14T18:22:46.443Z,14.43
2023-05-14T18:25:13.612Z,14.05
2023-05-14T18:27:44.310Z,14.15
2023-05-14T18:30:15.315Z,13.90
2023-05-14T18:32:44.163Z,14.93
2023-05-14T18:35:12.092Z,14.10
2023-05-14T18:37:38.706Z,13.90
2023-05-14T18:40:06.917Z,14.40
2023-05-14T18:42:34.032Z,14.30
2023-05-14T18:45:00.655Z,14.43
2023-05-14T18:47:27.449Z,14.15
2023-05-14T18:49:55.777Z,14.50
2023-05-14T18:52:22.933Z,14.80
2023-05-14T18:54:50.554Z,14.63
2023-05-14T18:57:17.199Z,13.95
2023-05-14T18:59:43.690Z,14.18
2023-05-14T19:02:10.210Z,13.90
2023-05-14T19:04:50.754Z,14.90
2023-05-14T19:07:18.835Z,14.40
2023-05-14T19:09:45.448Z,14.60
2023-05-14T19:12:12.341Z,13.93
2023-05-14T19:14:38.865Z,13.48
2023-05-14T19:17:05.718Z,13.43
2023-05-14T19:19:32.625Z,13.55
2023-05-14T19:21:59.128Z,13.40
2023-05-14T19:24:25.836Z,13.60
2023-05-14T19:26:52.682Z,13.85
2023-05-14T19:29:19.296Z,13.68
2023-05-14T19:31:45.939Z,14.20
2023-05-14T19:34:12.508Z,13.98
2023-05-14T19:36:38.989Z,13.80
2023-05-14T19:39:05.910Z,13.85
2023-05-14T19:41:32.489Z,13.80
2023-05-14T19:43:59.004Z,14.50
2023-05-14T19:46:26.135Z,13.80
2023-05-14T19:48:52.831Z,13.68
2023-05-14T19:51:19.365Z,14.38
2023-05-14T19:53:45.985Z,14.02
2023-05-14T19:56:12.511Z,13.52
2023-05-14T19:58:39.295Z,14.30
2023-05-14T20:01:05.869Z,13.68
2023-05-14T20:03:33.428Z,13.90
2023-05-14T20:06:00.148Z,14.20
2023-05-14T20:08:26.783Z,13.82
2023-05-14T20:10:53.313Z,14.70
2023-05-14T20:13:19.918Z,14.85
2023-05-14T20:15:46.685Z,15.65
2023-05-14T20:18:13.362Z,15.25
2023-05-14T20:20:40.000Z,15.38
2023-05-14T20:23:06.551Z,15.18
2023-05-14T20:25:33.336Z,15.85
2023-05-14T20:28:00.734Z,15.75
2023-05-14T20:30:28.047Z,15.15
2023-05-14T20:32:54.905Z,15.30
2023-05-14T20:35:21.494Z,15.25
2023-05-14T20:37:49.405Z,15.35
2023-05-14T20:40:16.008Z,15.70
2023-05-14T20:42:42.574Z,15.68
2023-05-14T20:45:10.628Z,15.85
2023-05-14T20:47:37.358Z,15.85
2023-05-14T20:50:04.666Z,17.10
2023-05-14T20:52:31.230Z,16.10
2023-05-14T20:54:59.428Z,15.75
2023-05-14T20:57:28.295Z,16.02
2023-05-14T20:59:54.888Z,16.73
2023-05-14T21:02:21.548Z,15.85
2023-05-14T21:04:48.208Z,16.58
2023-05-14T21:07:14.872Z,16.63
2023-05-14T21:09:41.925Z,16.17
2023-05-14T21:12:08.790Z,16.85
2023-05-14T21:14:35.492Z,16.23
2023-05-14T21:17:02.137Z,16.67
2023-05-14T21:19:28.669Z,17.48
2023-05-14T21:21:55.334Z,16.52
2023-05-14T21:24:21.931Z,17.27
2023-05-14T21:26:48.503Z,17.38
2023-05-14T21:29:15.057Z,16.27
2023-05-14T21:31:41.643Z,17.13
2023-05-14T21:34:08.159Z,16.70
2023-05-14T21:36:34.734Z,17.95
2023-05-14T21:39:01.299Z,16.27
2023-05-14T21:41:27.843Z,17.33
2023-05-14T21:43:54.377Z,17.35
2023-05-14T21:46:21.104Z,17.48
2023-05-14T21:48:47.736Z,17.30
2023-05-14T21:51:14.506Z,17.25
2023-05-14T21:53:41.173Z,17.60
2023-05-14T21:56:08.253Z,17.83
2023-05-14T21:58:35.634Z,17.55
2023-05-14T22:01:02.260Z,17.63
2023-05-14T22:03:28.886Z,18.58
2023-05-14T22:05:56.164Z,19.73
2023-05-14T22:08:23.348Z,18.45
2023-05-14T22:10:49.831Z,18.75
2023-05-14T22:13:16.388Z,18.33
2023-05-14T22:15:43.006Z,18.95
2023-05-14T22:18:09.742Z,19.77
2023-05-14T22:20:36.303Z,19.95
2023-05-14T22:23:02.765Z,19.85
2023-05-14T22:25:29.319Z,19.50
2023-05-14T22:27:55.852Z,18.55
2023-05-14T22:30:22.353Z,19.67
2023-05-14T22:32:48.875Z,19.90
2023-05-14T22:35:15.606Z,18.95
2023-05-14T22:37:42.146Z,18.15
2023-05-14T22:40:09.105Z,18.15
2023-05-14T22:42:35.790Z,19.20
2023-05-14T22:45:02.394Z,18.23
2023-05-14T22:47:29.084Z,19.88
2023-05-14T22:49:55.647Z,19.35
2023-05-14T22:52:22.225Z,19.23
2023-05-14T22:54:51.033Z,19.15
2023-05-14T22:57:18.006Z,18.65
2023-05-14T22:59:44.517Z,19.13
2023-05-14T23:02:11.180Z,19.23
2023-05-14T23:04:37.819Z,19.27
2023-05-14T23:07:04.550Z,18.48
2023-05-14T23:09:31.078Z,19.98
2023-05-14T23:11:57.636Z,19.75
2023-05-14T23:14:24.211Z,20.33
2023-05-14T23:16:50.738Z,19.67
2023-05-14T23:19:17.349Z,19.23
2023-05-14T23:21:43.908Z,20.38
2023-05-14T23:24:10.486Z,20.80
2023-05-14T23:26:37.086Z,21.70
2023-05-14T23:29:03.657Z,21.33
2023-05-14T23:31:30.336Z,21.45
2023-05-14T23:33:57.280Z,21.60
2023-05-14T23:36:24.020Z,21.20
2023-05-14T23:38:51.225Z,22.27
2023-05-14T23:41:17.708Z,22.75
2023-05-14T23:43:44.230Z,23.95
2023-05-14T23:46:10.996Z,23.90
2023-05-14T23:48:37.620Z,23.63
2023-05-14T23:51:04.209Z,23.63
2023-05-14T23:53:30.688Z,23.45
2023-05-14T23:55:57.330Z,24.17
2023-05-14T23:58:23.932Z,24.13
